Time;durP1;ratioP1;P1;durP2;ratioP2;P2;SDS_P1;SDS_P2;PMS_P1;PMS_P2;Temp;Humidity;BMP_temperature;BMP_pressure;BME280_temperature;BME280_humidity;BME280_pressure;Samples;Min_cycle;Max_cycle;Signal;HPM_P1;HPM_P2
2022/07/15 00:00:28;;;;;;;3.78;1.70;;;23.20;48.30;;;;;;5053156;28;20063;-61
2022/07/15 00:02:53;;;;;;;3.97;1.95;;;23.20;48.30;;;;;;5051999;28;20040;-65
2022/07/15 00:05:19;;;;;;;3.55;2.00;;;23.10;48.20;;;;;;5053418;28;20036;-62
2022/07/15 00:07:45;;;;;;;2.15;1.92;;;23.10;48.20;;;;;;5055540;28;20116;-63
2022/07/15 00:10:13;;;;;;;2.90;1.90;;;23.10;48.30;;;;;;5053502;28;20044;-64
2022/07/15 00:12:40;;;;;;;2.83;1.80;;;23.10;48.50;;;;;;5053327;28;20075;-63
2022/07/15 00:15:07;;;;;;;2.00;1.80;;;23.10;48.90;;;;;;5052033;28;20033;-64
2022/07/15 00:17:33;;;;;;;4.95;1.90;;;23.10;48.90;;;;;;5052258;28;20123;-60
2022/07/15 00:19:59;;;;;;;3.45;2.03;;;23.10;48.80;;;;;;5053256;28;20116;-66
2022/07/15 00:22:25;;;;;;;2.08;1.88;;;23.10;48.80;;;;;;5053445;28;20484;-64
2022/07/15 00:24:51;;;;;;;2.42;2.00;;;23.10;48.80;;;;;;5051474;28;20040;-62
2022/07/15 00:27:17;;;;;;;2.47;2.00;;;23.10;48.90;;;;;;5051800;28;20449;-62
2022/07/15 00:29:44;;;;;;;5.50;1.92;;;23.10;48.70;;;;;;5053358;28;20033;-64
2022/07/15 00:32:10;;;;;;;4.70;1.98;;;23.10;48.60;;;;;;5052240;28;20044;-61
2022/07/15 00:34:35;;;;;;;3.40;1.90;;;23.10;48.50;;;;;;5053539;28;20424;-63
2022/07/15 00:37:02;;;;;;;3.45;2.17;;;23.10;48.50;;;;;;5052724;28;20120;-64
2022/07/15 00:39:27;;;;;;;2.10;1.83;;;23.10;48.40;;;;;;5053302;28;20509;-63
2022/07/15 00:41:53;;;;;;;2.75;2.05;;;23.10;48.30;;;;;;5052007;28;20047;-64
2022/07/15 00:44:19;;;;;;;4.18;2.08;;;23.10;48.20;;;;;;5052873;28;20037;-64
2022/07/15 00:46:44;;;;;;;2.60;2.00;;;23.10;48.20;;;;;;5054387;28;20595;-65
2022/07/15 00:49:11;;;;;;;4.25;2.13;;;23.10;48.10;;;;;;5049784;28;20041;-64
2022/07/15 00:51:58;;;;;;;4.55;2.20;;;23.10;48.20;;;;;;5050340;28;20035;-63
2022/07/15 00:54:26;;;;;;;2.75;2.20;;;23.10;48.30;;;;;;5052546;28;20037;-62
2022/07/15 00:56:55;;;;;;;4.03;2.40;;;23.10;48.00;;;;;;5049963;28;20106;-63
2022/07/15 00:59:24;;;;;;;2.88;2.05;;;23.00;48.00;;;;;;5053788;28;20039;-63
2022/07/15 01:01:52;;;;;;;2.55;2.17;;;23.00;48.00;;;;;;5056591;28;20036;-62
2022/07/15 01:04:18;;;;;;;3.03;2.10;;;23.00;48.00;;;;;;5051617;28;20037;-64
2022/07/15 01:06:44;;;;;;;3.10;2.35;;;23.00;48.10;;;;;;5052634;28;20060;-64
2022/07/15 01:09:10;;;;;;;2.92;2.20;;;22.80;48.40;;;;;;5053607;28;20437;-61
2022/07/15 01:11:36;;;;;;;3.90;1.85;;;22.90;48.60;;;;;;5056549;28;20029;-66
2022/07/15 01:14:02;;;;;;;2.80;2.17;;;22.90;48.70;;;;;;5051171;28;20781;-63
2022/07/15 01:16:28;;;;;;;2.45;2.00;;;22.80;49.00;;;;;;5052718;28;20116;-64
2022/07/15 01:18:54;;;;;;;3.30;2.20;;;22.80;48.90;;;;;;5054181;28;20124;-66
2022/07/15 01:21:20;;;;;;;4.35;2.03;;;22.80;48.40;;;;;;5053283;28;20400;-62
2022/07/15 01:23:46;;;;;;;2.58;2.10;;;22.80;48.00;;;;;;5045134;28;20033;-63
2022/07/15 01:26:13;;;;;;;4.68;1.88;;;22.70;47.90;;;;;;5049425;28;20548;-64
2022/07/15 01:28:40;;;;;;;2.90;1.88;;;22.70;48.30;;;;;;5050747;28;20124;-63
2022/07/15 01:31:06;;;;;;;2.85;1.83;;;22.70;48.40;;;;;;5048242;28;20037;-62
2022/07/15 01:33:32;;;;;;;2.00;1.90;;;22.60;48.30;;;;;;5052344;28;20411;-64
2022/07/15 01:35:59;;;;;;;4.75;1.95;;;22.60;48.30;;;;;;5051247;28;20102;-63
2022/07/15 01:38:25;;;;;;;2.63;2.10;;;22.60;48.30;;;;;;5049121;28;20020;-64
2022/07/15 01:40:51;;;;;;;4.78;2.10;;;22.60;48.50;;;;;;5047847;28;20112;-62
2022/07/15 01:43:17;;;;;;;6.53;2.33;;;22.60;48.60;;;;;;5051569;28;20395;-63
2022/07/15 01:45:43;;;;;;;3.13;1.98;;;22.60;48.80;;;;;;5051906;28;20556;-64
2022/07/15 01:49:21;;;;;;;2.17;1.88;;;22.50;49.30;;;;;;5053604;28;20621;-63
2022/07/15 01:50:57;;;;;;;1.90;1.80;;;22.40;48.60;;;;;;5050348;28;20029;-64
2022/07/15 01:53:23;;;;;;;2.75;1.70;;;22.40;48.60;;;;;;5051242;28;20532;-63
2022/07/15 01:55:48;;;;;;;2.67;1.80;;;22.30;48.80;;;;;;5051360;28;20071;-63
2022/07/15 01:58:14;;;;;;;2.63;1.65;;;22.30;48.90;;;;;;5050461;28;20124;-63
2022/07/15 02:00:39;;;;;;;3.00;1.63;;;22.30;48.80;;;;;;5049558;28;20037;-63
2022/07/15 02:03:07;;;;;;;3.25;1.92;;;22.20;48.70;;;;;;5050282;28;20457;-65
2022/07/15 02:05:33;;;;;;;2.15;1.67;;;22.20;48.60;;;;;;5051894;28;20102;-64
2022/07/15 02:07:59;;;;;;;3.15;1.85;;;22.20;48.30;;;;;;5048067;28;20067;-64
2022/07/15 02:10:25;;;;;;;3.72;1.65;;;22.20;48.00;;;;;;5049920;28;20111;-64
2022/07/15 02:12:51;;;;;;;2.17;1.67;;;22.10;48.10;;;;;;5049799;28;20044;-65
2022/07/15 02:15:16;;;;;;;3.65;1.70;;;22.10;48.10;;;;;;5049141;28;20042;-64
2022/07/15 02:17:42;;;;;;;2.85;1.52;;;22.10;48.20;;;;;;5054920;28;20047;-63
2022/07/15 02:20:09;;;;;;;1.67;1.58;;;22.00;48.20;;;;;;5052072;28;20136;-65
2022/07/15 02:22:37;;;;;;;1.50;1.40;;;22.00;48.00;;;;;;5049685;28;20028;-63
2022/07/15 02:25:03;;;;;;;1.85;1.70;;;22.00;48.00;;;;;;5050321;28;20036;-65
2022/07/15 02:27:29;;;;;;;2.00;1.52;;;21.90;47.80;;;;;;5049468;28;20044;-64
2022/07/15 02:29:56;;;;;;;7.53;1.90;;;21.90;47.90;;;;;;5052002;28;20079;-64
2022/07/15 02:32:21;;;;;;;2.30;1.55;;;21.90;48.00;;;;;;5050459;28;20029;-63
2022/07/15 02:34:47;;;;;;;3.97;1.55;;;21.80;48.00;;;;;;5049205;28;20102;-67
2022/07/15 02:37:13;;;;;;;2.78;1.60;;;21.80;48.20;;;;;;5052344;28;20044;-63
2022/07/15 02:39:38;;;;;;;2.75;1.50;;;21.70;48.20;;;;;;5049495;28;20079;-63
2022/07/15 02:42:05;;;;;;;3.10;1.70;;;21.70;48.30;;;;;;5049789;28;20519;-64
2022/07/15 02:44:31;;;;;;;1.45;1.35;;;21.70;48.20;;;;;;5049713;28;20080;-63
2022/07/15 02:46:57;;;;;;;3.00;1.42;;;21.60;48.10;;;;;;5049972;28;20180;-64
2022/07/15 02:49:23;;;;;;;2.25;1.38;;;21.60;48.20;;;;;;5049468;28;20485;-64
2022/07/15 02:51:48;;;;;;;3.13;1.77;;;21.60;48.30;;;;;;5054548;28;20033;-64
2022/07/15 02:54:14;;;;;;;2.72;1.50;;;21.50;48.40;;;;;;5051578;28;20083;-66
2022/07/15 02:56:40;;;;;;;4.00;1.70;;;21.50;48.50;;;;;;5056967;28;20040;-63
2022/07/15 02:59:05;;;;;;;1.92;1.58;;;21.50;48.60;;;;;;5052192;28;20036;-63
2022/07/15 03:01:31;;;;;;;1.58;1.48;;;21.40;48.50;;;;;;5054224;28;20029;-63
2022/07/15 03:03:56;;;;;;;1.98;1.55;;;21.40;48.50;;;;;;5053993;28;20033;-63
2022/07/15 03:06:22;;;;;;;2.17;1.60;;;21.30;48.60;;;;;;5055589;28;20451;-63
2022/07/15 03:08:47;;;;;;;2.33;1.67;;;21.30;48.80;;;;;;5052045;28;20033;-63
2022/07/15 03:11:13;;;;;;;2.25;1.58;;;21.20;48.80;;;;;;5055510;28;20036;-63
2022/07/15 03:13:39;;;;;;;2.42;1.60;;;21.20;49.00;;;;;;5057730;28;20037;-63
2022/07/15 03:16:04;;;;;;;2.03;1.50;;;21.10;49.00;;;;;;5057935;28;20028;-63
2022/07/15 03:18:30;;;;;;;1.75;1.35;;;21.10;49.10;;;;;;5056659;28;20119;-63
2022/07/15 03:20:56;;;;;;;4.15;1.83;;;21.00;49.20;;;;;;5057121;28;20037;-63
2022/07/15 03:23:21;;;;;;;3.50;1.50;;;20.90;49.30;;;;;;5057533;28;20032;-61
2022/07/15 03:25:48;;;;;;;2.08;1.60;;;20.90;49.50;;;;;;5058436;28;20099;-63
2022/07/15 03:28:13;;;;;;;2.58;1.77;;;20.80;49.70;;;;;;5059113;28;20064;-64
2022/07/15 03:30:39;;;;;;;3.17;1.88;;;20.70;49.90;;;;;;5057696;28;20052;-64
2022/07/15 03:33:05;;;;;;;2.72;1.45;;;20.60;50.00;;;;;;5059952;28;20072;-61
2022/07/15 03:35:30;;;;;;;2.13;1.58;;;20.60;50.20;;;;;;5059153;28;20037;-61
2022/07/15 03:37:56;;;;;;;1.98;1.52;;;20.50;50.30;;;;;;5058003;28;20132;-62
2022/07/15 03:40:22;;;;;;;2.92;1.85;;;20.40;50.60;;;;;;5058754;28;20036;-62
2022/07/15 03:42:47;;;;;;;2.47;1.60;;;20.30;50.80;;;;;;5058509;28;20514;-65
2022/07/15 03:45:13;;;;;;;2.78;1.67;;;20.30;51.00;;;;;;5057888;28;20033;-62
2022/07/15 03:47:38;;;;;;;2.38;1.55;;;20.20;51.20;;;;;;5057777;28;20850;-62
2022/07/15 03:50:05;;;;;;;3.40;1.90;;;20.10;51.20;;;;;;5057497;28;20527;-61
2022/07/15 03:52:30;;;;;;;3.92;1.85;;;20.10;51.50;;;;;;5056968;28;20037;-59
2022/07/15 03:54:56;;;;;;;3.20;2.00;;;20.00;51.80;;;;;;5055499;28;20044;-63
2022/07/15 03:57:24;;;;;;;3.10;1.67;;;20.00;51.90;;;;;;5056956;28;20687;-64
2022/07/15 03:59:50;;;;;;;2.42;1.92;;;19.90;52.20;;;;;;5056642;28;20040;-64
2022/07/15 04:02:16;;;;;;;2.80;2.00;;;19.90;52.20;;;;;;5057188;28;20052;-62
2022/07/15 04:04:41;;;;;;;3.22;1.60;;;19.80;52.20;;;;;;5057547;28;20032;-62
2022/07/15 04:07:07;;;;;;;4.40;2.03;;;19.70;52.40;;;;;;5057518;28;20048;-63
2022/07/15 04:09:33;;;;;;;3.60;1.83;;;19.70;52.60;;;;;;5056730;28;20455;-63
2022/07/15 04:11:58;;;;;;;3.47;1.70;;;19.70;52.40;;;;;;5056644;28;20312;-64
2022/07/15 04:14:24;;;;;;;3.10;1.88;;;19.60;52.50;;;;;;5056462;28;20044;-63
2022/07/15 04:16:49;;;;;;;4.82;1.85;;;19.60;52.80;;;;;;5056310;28;20039;-61
2022/07/15 04:19:15;;;;;;;3.42;1.80;;;19.60;53.20;;;;;;5057030;28;20424;-62
2022/07/15 04:21:41;;;;;;;5.65;1.83;;;19.50;53.80;;;;;;5055652;28;20424;-63
2022/07/15 04:24:07;;;;;;;2.58;1.65;;;19.50;53.00;;;;;;5055818;28;20045;-62
2022/07/15 04:26:32;;;;;;;3.17;1.88;;;19.50;53.20;;;;;;5054462;28;20104;-64
2022/07/15 04:28:58;;;;;;;5.95;2.15;;;19.40;53.40;;;;;;5057632;28;20032;-62
2022/07/15 04:31:23;;;;;;;5.53;1.98;;;19.40;53.70;;;;;;5053426;28;20036;-63
2022/07/15 04:33:49;;;;;;;3.50;2.08;;;19.40;53.80;;;;;;5057365;28;20036;-62
2022/07/15 04:36:15;;;;;;;3.47;2.00;;;19.40;54.00;;;;;;5055112;28;20094;-63
2022/07/15 04:38:40;;;;;;;2.50;1.88;;;19.30;54.00;;;;;;5053557;28;20419;-61
2022/07/15 04:41:06;;;;;;;2.92;2.10;;;19.30;54.10;;;;;;5054036;28;20163;-62
2022/07/15 04:43:31;;;;;;;5.50;2.00;;;19.30;54.30;;;;;;5052305;28;20381;-62
2022/07/15 04:45:57;;;;;;;2.28;1.77;;;19.30;54.60;;;;;;5054448;28;20500;-61
2022/07/15 04:51:07;;;;;;;5.03;2.07;;;19.30;54.70;;;;;;5055343;28;20415;-63
2022/07/15 04:53:33;;;;;;;4.22;2.08;;;19.30;54.70;;;;;;5056589;28;20037;-63
2022/07/15 04:55:58;;;;;;;2.15;1.77;;;19.30;54.70;;;;;;5054655;28;20105;-62
2022/07/15 04:58:24;;;;;;;2.72;1.70;;;19.30;54.90;;;;;;5054921;28;20043;-61
2022/07/15 05:00:49;;;;;;;1.95;1.63;;;19.30;55.10;;;;;;5055601;28;20821;-62
2022/07/15 05:03:15;;;;;;;2.15;1.50;;;19.30;55.00;;;;;;5055702;28;20580;-63
2022/07/15 05:05:44;;;;;;;2.20;1.75;;;19.40;55.00;;;;;;5054480;28;20253;-62
2022/07/15 05:08:09;;;;;;;2.53;1.55;;;19.40;54.80;;;;;;5055890;28;20037;-66
2022/07/15 05:10:35;;;;;;;2.10;1.65;;;19.40;54.80;;;;;;5054451;28;20068;-63
2022/07/15 05:13:04;;;;;;;3.85;1.83;;;19.50;54.80;;;;;;5057118;28;20287;-64
2022/07/15 05:15:30;;;;;;;3.72;1.67;;;19.60;54.90;;;;;;5053493;28;20033;-64
2022/07/15 05:17:56;;;;;;;4.03;1.65;;;19.60;54.80;;;;;;5053683;28;20047;-65
2022/07/15 05:20:22;;;;;;;4.18;1.60;;;19.70;54.20;;;;;;5053611;28;20033;-63
2022/07/15 05:22:48;;;;;;;5.05;1.70;;;19.70;54.20;;;;;;5053972;28;20052;-63
2022/07/15 05:25:14;;;;;;;1.88;1.65;;;19.80;55.10;;;;;;5055285;28;20037;-64
2022/07/15 05:27:39;;;;;;;4.57;1.60;;;19.80;53.50;;;;;;5053170;28;20045;-64
2022/07/15 05:30:06;;;;;;;4.38;1.58;;;19.80;53.10;;;;;;5053719;28;20091;-64
2022/07/15 05:32:32;;;;;;;4.22;1.50;;;19.90;53.20;;;;;;5052968;28;20061;-65
2022/07/15 05:34:57;;;;;;;2.63;1.38;;;19.90;53.00;;;;;;5052634;28;20063;-64
2022/07/15 05:37:23;;;;;;;2.83;1.42;;;20.00;53.10;;;;;;5051989;28;20111;-64
2022/07/15 05:39:55;;;;;;;2.75;1.50;;;20.10;53.40;;;;;;5055284;28;20492;-63
2022/07/15 05:42:21;;;;;;;2.25;1.40;;;20.20;53.10;;;;;;5051398;28;20538;-64
2022/07/15 05:44:47;;;;;;;2.75;1.42;;;20.20;52.60;;;;;;5051930;28;20048;-64
2022/07/15 05:47:14;;;;;;;3.38;1.30;;;20.20;52.30;;;;;;5053693;28;20028;-64
2022/07/15 05:49:41;;;;;;;2.15;1.40;;;20.30;52.30;;;;;;5052587;28;20067;-64
2022/07/15 05:52:07;;;;;;;2.90;1.33;;;20.40;52.20;;;;;;5056430;28;20124;-62
2022/07/15 05:54:32;;;;;;;3.85;1.20;;;20.40;52.00;;;;;;5053574;28;20383;-64
2022/07/15 05:56:58;;;;;;;3.63;1.40;;;20.50;51.60;;;;;;5052914;28;20187;-63
2022/07/15 05:59:24;;;;;;;2.67;1.40;;;20.60;51.40;;;;;;5052036;28;20408;-62
2022/07/15 06:01:49;;;;;;;2.50;1.35;;;20.70;51.00;;;;;;5056457;28;20033;-65
2022/07/15 06:04:15;;;;;;;2.65;1.20;;;20.80;50.90;;;;;;5052284;28;20032;-65
2022/07/15 06:06:41;;;;;;;7.25;1.40;;;20.90;51.60;;;;;;5051128;28;20036;-62
2022/07/15 06:09:06;;;;;;;3.67;1.42;;;21.00;50.80;;;;;;5054002;28;20444;-62
2022/07/15 06:11:33;;;;;;;4.40;1.15;;;21.00;50.90;;;;;;5051554;28;20040;-64
2022/07/15 06:13:59;;;;;;;5.22;1.27;;;21.10;50.40;;;;;;5053636;28;20028;-64
2022/07/15 06:16:25;;;;;;;3.30;1.20;;;21.20;50.20;;;;;;5052584;28;20403;-63
2022/07/15 06:18:51;;;;;;;3.55;1.00;;;21.20;50.10;;;;;;5054152;28;20571;-61
2022/07/15 06:21:17;;;;;;;6.68;1.00;;;21.30;49.70;;;;;;5054316;28;20705;-62
2022/07/15 06:23:42;;;;;;;2.78;1.23;;;21.30;49.50;;;;;;5052553;28;20548;-61
2022/07/15 06:26:09;;;;;;;3.15;1.40;;;21.40;49.30;;;;;;5056333;28;20033;-62
2022/07/15 06:28:35;;;;;;;3.92;1.20;;;21.50;49.40;;;;;;5052837;28;20036;-60
2022/07/15 06:31:01;;;;;;;3.13;1.27;;;21.50;49.20;;;;;;5055225;28;20409;-61
2022/07/15 06:33:27;;;;;;;3.85;1.00;;;21.60;49.30;;;;;;5056130;28;20037;-63
2022/07/15 06:35:52;;;;;;;3.15;1.10;;;21.60;49.30;;;;;;5055671;28;20035;-62
2022/07/15 06:38:18;;;;;;;7.43;1.55;;;21.60;49.20;;;;;;5054630;28;20401;-64
2022/07/15 06:40:44;;;;;;;3.10;1.10;;;21.70;49.10;;;;;;5052615;28;20048;-62
2022/07/15 06:43:10;;;;;;;3.25;1.20;;;21.80;49.10;;;;;;5052490;28;20048;-64
2022/07/15 06:45:36;;;;;;;2.70;1.30;;;21.80;48.90;;;;;;5050982;28;20075;-61
2022/07/15 06:48:02;;;;;;;2.33;1.20;;;21.90;48.80;;;;;;5053628;28;20202;-62
2022/07/15 06:50:27;;;;;;;5.72;1.30;;;21.90;48.60;;;;;;5053152;28;20029;-62
2022/07/15 06:52:54;;;;;;;3.05;1.30;;;22.00;48.70;;;;;;5051554;28;20087;-63
2022/07/15 06:55:19;;;;;;;3.30;1.40;;;22.00;48.20;;;;;;5053419;28;20381;-64
2022/07/15 06:57:45;;;;;;;2.63;1.30;;;22.00;48.30;;;;;;5052945;28;20043;-62
2022/07/15 07:00:11;;;;;;;3.53;1.30;;;22.00;48.30;;;;;;5052971;28;20060;-63
2022/07/15 07:02:38;;;;;;;2.90;1.38;;;22.00;48.30;;;;;;5051512;28;20116;-62
2022/07/15 07:05:04;;;;;;;3.30;1.40;;;22.00;48.30;;;;;;5053456;28;20463;-62
2022/07/15 07:07:30;;;;;;;3.42;1.15;;;22.10;48.20;;;;;;5052798;28;20064;-63
2022/07/15 07:09:56;;;;;;;3.38;1.45;;;22.10;48.40;;;;;;5054790;28;20124;-63
2022/07/15 07:12:21;;;;;;;2.22;1.20;;;22.10;48.20;;;;;;5050742;28;20029;-62
2022/07/15 07:14:47;;;;;;;3.55;1.40;;;22.10;48.30;;;;;;5049738;28;20492;-63
2022/07/15 07:17:13;;;;;;;2.28;1.23;;;22.10;48.50;;;;;;5051950;28;20515;-63
2022/07/15 07:19:38;;;;;;;2.88;1.45;;;22.10;48.50;;;;;;5053588;28;20090;-63
2022/07/15 07:22:04;;;;;;;1.92;1.20;;;22.10;48.50;;;;;;5053151;28;20036;-64
2022/07/15 07:24:30;;;;;;;2.60;1.55;;;22.20;48.60;;;;;;5053168;28;20041;-63
2022/07/15 07:26:55;;;;;;;4.38;1.52;;;22.20;48.40;;;;;;5052363;28;20043;-61
2022/07/15 07:29:24;;;;;;;4.80;1.50;;;22.30;48.60;;;;;;5054936;28;20106;-64
2022/07/15 07:31:50;;;;;;;5.75;1.55;;;22.40;48.50;;;;;;5051655;28;20049;-63
2022/07/15 07:34:17;;;;;;;5.22;1.73;;;22.40;48.30;;;;;;5052559;28;20028;-64
2022/07/15 07:36:43;;;;;;;4.53;1.40;;;22.50;48.20;;;;;;5051680;28;20035;-64
2022/07/15 07:39:09;;;;;;;2.95;1.50;;;22.60;48.10;;;;;;5056416;28;20021;-62
2022/07/15 07:41:35;;;;;;;1.73;1.40;;;22.70;48.00;;;;;;5054545;28;20052;-63
2022/07/15 07:44:00;;;;;;;2.15;1.50;;;22.70;48.00;;;;;;5057199;28;20720;-65
2022/07/15 07:46:26;;;;;;;9.32;1.65;;;22.80;48.00;;;;;;5055623;28;20024;-62
2022/07/15 07:48:51;;;;;;;3.15;1.40;;;22.90;47.90;;;;;;5056649;28;20581;-63
2022/07/15 07:51:17;;;;;;;2.67;1.60;;;23.00;47.80;;;;;;5056819;28;20040;-63
2022/07/15 07:53:43;;;;;;;5.70;1.50;;;23.00;48.10;;;;;;5056901;28;20131;-63
2022/07/15 07:56:09;;;;;;;4.35;1.50;;;23.10;47.60;;;;;;5057028;28;20359;-61
2022/07/15 07:58:35;;;;;;;2.83;1.55;;;23.20;47.00;;;;;;5057206;28;20032;-62
2022/07/15 08:01:00;;;;;;;3.15;1.35;;;23.30;47.30;;;;;;5056634;28;20037;-64
2022/07/15 08:03:29;;;;;;;1.88;1.30;;;23.30;46.60;;;;;;5052977;28;20036;-63
2022/07/15 08:05:55;;;;;;;3.42;1.33;;;23.40;46.30;;;;;;5056715;28;20545;-63
2022/07/15 08:08:22;;;;;;;4.57;1.60;;;23.40;46.00;;;;;;5056564;28;20037;-61
2022/07/15 08:10:51;;;;;;;2.55;1.40;;;23.50;46.00;;;;;;5054847;28;20087;-61
2022/07/15 08:13:18;;;;;;;2.17;1.30;;;23.60;45.90;;;;;;5054417;28;20087;-65
2022/07/15 08:15:44;;;;;;;4.32;1.52;;;23.60;46.00;;;;;;5056353;28;20084;-63
2022/07/15 08:18:10;;;;;;;4.63;1.50;;;23.60;45.90;;;;;;5054759;28;20032;-63
2022/07/15 08:20:36;;;;;;;5.30;1.50;;;23.70;45.80;;;;;;5054986;28;20442;-63
2022/07/15 08:23:03;;;;;;;3.40;1.63;;;23.80;45.90;;;;;;5057243;28;20292;-64
2022/07/15 08:25:31;;;;;;;4.43;1.42;;;23.80;45.70;;;;;;5058732;28;20087;-66
2022/07/15 08:27:58;;;;;;;3.38;1.40;;;23.90;45.50;;;;;;5055932;28;20036;-62
2022/07/15 08:30:25;;;;;;;3.67;1.70;;;24.00;45.40;;;;;;5058713;28;20525;-62
2022/07/15 08:32:51;;;;;;;3.38;1.33;;;24.10;45.10;;;;;;5053188;28;20040;-63
2022/07/15 08:35:17;;;;;;;2.33;1.50;;;24.20;45.00;;;;;;5055023;28;20376;-62
2022/07/15 08:37:43;;;;;;;4.00;1.52;;;24.30;44.80;;;;;;5056129;28;20036;-62
2022/07/15 08:40:10;;;;;;;3.60;1.80;;;24.40;44.70;;;;;;5055872;28;20580;-62
2022/07/15 08:42:39;;;;;;;25.83;2.25;;;24.50;44.40;;;;;;5053952;28;20546;-64
2022/07/15 08:45:07;;;;;;;3.75;1.45;;;24.60;44.30;;;;;;5056468;28;20070;-64
2022/07/15 08:47:33;;;;;;;4.03;1.45;;;24.70;43.90;;;;;;5055936;28;20444;-63
2022/07/15 08:49:59;;;;;;;2.28;1.40;;;24.70;44.00;;;;;;5056550;28;20063;-62
2022/07/15 08:52:25;;;;;;;2.17;1.52;;;24.90;44.10;;;;;;5055281;28;20394;-64
2022/07/15 08:54:51;;;;;;;2.80;1.75;;;25.00;43.70;;;;;;5055474;28;20037;-64
2022/07/15 08:57:18;;;;;;;3.70;1.60;;;25.00;43.40;;;;;;5054231;28;20048;-64
2022/07/15 08:59:45;;;;;;;3.83;1.42;;;25.10;43.00;;;;;;5054670;28;20048;-63
2022/07/15 09:02:13;;;;;;;4.80;1.63;;;25.20;43.20;;;;;;5055977;28;20083;-64
2022/07/15 09:05:16;;;;;;;1.63;1.27;;;25.30;42.90;;;;;;5054902;28;20028;-63
2022/07/15 09:08:03;;;;;;;3.53;1.20;;;25.40;42.50;;;;;;5054787;28;20395;-62
2022/07/15 09:10:44;;;;;;;3.38;1.33;;;25.50;42.30;;;;;;5055693;28;20085;-65
2022/07/15 09:13:12;;;;;;;2.50;1.50;;;25.50;42.20;;;;;;5055553;28;20051;-63
2022/07/15 09:15:40;;;;;;;3.63;1.40;;;25.60;42.50;;;;;;5053873;28;20048;-64
2022/07/15 09:18:10;;;;;;;5.78;1.25;;;25.70;42.70;;;;;;5055387;28;20047;-64
2022/07/15 09:20:37;;;;;;;2.65;1.50;;;25.80;42.60;;;;;;5053732;28;20051;-65
2022/07/15 09:23:04;;;;;;;4.00;1.50;;;25.90;42.50;;;;;;5054266;28;20028;-65
2022/07/15 09:25:33;;;;;;;3.63;1.90;;;26.00;42.20;;;;;;5055817;28;20044;-66
2022/07/15 09:28:01;;;;;;;3.95;1.60;;;26.00;41.90;;;;;;5057593;28;20551;-63
2022/07/15 09:33:38;;;;;;;4.32;1.60;;;26.10;40.80;;;;;;5057157;28;20052;-63
2022/07/15 09:36:09;;;;;;;4.47;1.80;;;26.10;40.30;;;;;;5057195;28;20040;-64
2022/07/15 09:38:41;;;;;;;2.05;1.50;;;26.00;41.00;;;;;;5056606;28;20036;-63
2022/07/15 09:41:12;;;;;;;2.53;1.80;;;26.10;41.30;;;;;;5054222;28;20040;-63
2022/07/15 09:43:50;;;;;;;8.07;1.70;;;26.10;41.00;;;;;;5055637;28;20089;-65
2022/07/15 09:46:16;;;;;;;4.10;1.75;;;26.20;41.30;;;;;;5054464;28;20028;-64
2022/07/15 09:48:44;;;;;;;2.20;1.42;;;26.30;41.10;;;;;;5055319;28;20117;-63
2022/07/15 09:51:11;;;;;;;1.92;1.40;;;26.40;40.80;;;;;;5055355;28;20653;-64
2022/07/15 09:53:37;;;;;;;2.50;1.40;;;26.50;41.00;;;;;;5055329;28;20512;-62
2022/07/15 09:56:06;;;;;;;2.08;1.40;;;26.60;41.00;;;;;;5054213;28;20040;-63
2022/07/15 09:58:31;;;;;;;5.53;1.50;;;26.70;40.70;;;;;;5053001;28;20086;-61
2022/07/15 10:00:57;;;;;;;2.33;1.85;;;26.80;40.60;;;;;;5056037;28;20571;-64
2022/07/15 10:03:24;;;;;;;3.28;1.58;;;26.90;39.80;;;;;;5056465;28;20033;-63
2022/07/15 10:05:55;;;;;;;1.50;1.40;;;27.10;39.70;;;;;;5055391;28;20124;-61
2022/07/15 10:08:23;;;;;;;4.72;1.70;;;27.10;39.70;;;;;;5056004;28;20539;-63
2022/07/15 10:10:51;;;;;;;3.42;1.42;;;27.10;39.10;;;;;;5054097;28;20163;-64
2022/07/15 10:13:38;;;;;;;3.92;1.80;;;27.10;39.40;;;;;;5054169;28;20032;-63
2022/07/15 10:16:25;;;;;;;5.45;1.85;;;27.10;38.90;;;;;;5054631;28;20058;-63
2022/07/15 10:18:59;;;;;;;1.83;1.50;;;27.10;38.40;;;;;;5055752;28;20474;-66
2022/07/15 10:21:51;;;;;;;2.95;1.63;;;27.00;39.20;;;;;;5054181;28;20124;-64
2022/07/15 10:24:37;;;;;;;2.53;1.55;;;27.00;38.50;;;;;;5053125;28;20109;-62
2022/07/15 10:27:27;;;;;;;3.85;2.08;;;27.00;39.00;;;;;;5053530;28;20051;-63
2022/07/15 10:29:55;;;;;;;6.00;1.60;;;27.00;38.40;;;;;;5055087;28;20056;-62
2022/07/15 10:32:20;;;;;;;5.00;1.88;;;27.00;39.00;;;;;;5054797;28;20029;-63
2022/07/15 10:34:48;;;;;;;2.00;1.45;;;27.00;38.80;;;;;;5052488;28;20052;-65
2022/07/15 10:37:14;;;;;;;2.35;1.70;;;27.10;39.00;;;;;;5054914;28;20473;-63
2022/07/15 10:39:57;;;;;;;3.45;1.45;;;27.10;39.00;;;;;;5054479;28;20041;-64
2022/07/15 10:42:24;;;;;;;2.03;1.70;;;27.10;38.30;;;;;;5052258;28;20155;-63
2022/07/15 10:44:58;;;;;;;6.20;1.85;;;27.20;38.80;;;;;;5052445;28;21579;-64
2022/07/15 10:47:25;;;;;;;2.10;1.40;;;27.20;38.90;;;;;;5055766;28;20028;-64
2022/07/15 10:49:51;;;;;;;2.17;1.38;;;27.20;39.10;;;;;;5056912;28;20053;-64
2022/07/15 10:52:38;;;;;;;2.97;1.50;;;27.30;38.90;;;;;;5054892;28;20036;-64
2022/07/15 10:55:05;;;;;;;4.00;1.50;;;27.30;38.50;;;;;;5052622;28;20033;-64
2022/07/15 10:57:40;;;;;;;3.60;1.90;;;27.30;39.00;;;;;;5054471;28;20041;-63
2022/07/15 11:00:24;;;;;;;2.58;1.40;;;27.30;38.60;;;;;;5055121;28;20411;-66
2022/07/15 11:03:09;;;;;;;4.38;1.42;;;27.30;39.00;;;;;;5056128;28;20127;-61
2022/07/15 11:06:01;;;;;;;2.78;1.52;;;27.40;38.20;;;;;;5053693;28;20033;-63
2022/07/15 11:08:36;;;;;;;2.67;1.50;;;27.50;38.30;;;;;;5055243;28;20051;-62
2022/07/15 11:11:14;;;;;;;1.80;1.70;;;27.60;38.60;;;;;;5052834;28;20036;-61
2022/07/15 11:13:40;;;;;;;3.33;1.63;;;27.70;37.90;;;;;;5058626;28;20037;-61
2022/07/15 11:16:14;;;;;;;4.00;1.67;;;27.80;38.00;;;;;;5056331;28;20033;-63
2022/07/15 11:18:55;;;;;;;3.38;1.60;;;27.90;37.40;;;;;;5060321;28;20040;-61
2022/07/15 11:21:22;;;;;;;2.08;1.35;;;28.00;37.90;;;;;;5057193;28;20520;-62
2022/07/15 11:23:49;;;;;;;2.65;1.90;;;28.00;38.00;;;;;;5059214;28;20040;-62
2022/07/15 11:26:15;;;;;;;3.47;1.70;;;28.10;37.40;;;;;;5057839;28;20032;-64
2022/07/15 11:28:50;;;;;;;3.83;1.65;;;28.10;36.50;;;;;;5059078;28;20089;-64
2022/07/15 11:31:15;;;;;;;2.83;1.70;;;28.20;34.70;;;;;;5059154;28;20520;-62
2022/07/15 11:33:41;;;;;;;2.67;1.60;;;28.20;36.00;;;;;;5059325;28;20029;-64
2022/07/15 11:36:17;;;;;;;3.75;1.60;;;28.10;36.00;;;;;;5057440;28;20452;-66
2022/07/15 11:38:43;;;;;;;2.03;1.50;;;28.20;35.30;;;;;;5056250;28;20500;-63
2022/07/15 11:46:50;;;;;;;2.00;1.50;;;28.10;36.00;;;;;;5055472;28;20126;-64
2022/07/15 11:49:45;;;;;;;2.83;1.50;;;28.20;36.10;;;;;;5059015;28;20495;-63
2022/07/15 11:52:21;;;;;;;1.77;1.67;;;28.30;35.90;;;;;;5053498;28;20403;-63
2022/07/15 11:54:47;;;;;;;1.90;1.33;;;28.40;35.50;;;;;;5057153;28;20029;-63
2022/07/15 11:57:14;;;;;;;3.67;1.50;;;28.40;35.90;;;;;;5057728;28;20033;-63
2022/07/15 11:59:40;;;;;;;1.98;1.58;;;28.50;35.70;;;;;;5055789;28;20085;-64
2022/07/15 12:02:10;;;;;;;2.10;1.60;;;28.50;35.90;;;;;;5059882;28;20032;-64
2022/07/15 12:04:37;;;;;;;3.00;1.65;;;28.60;35.70;;;;;;5058413;28;20041;-65
2022/07/15 12:07:03;;;;;;;2.13;1.60;;;28.60;35.40;;;;;;5059499;28;20040;-64
2022/07/15 12:09:49;;;;;;;1.50;1.40;;;28.60;35.40;;;;;;5055941;28;20115;-61
2022/07/15 12:12:15;;;;;;;3.42;1.50;;;28.70;35.50;;;;;;5052706;28;20082;-63
2022/07/15 12:14:42;;;;;;;5.35;1.75;;;28.70;35.30;;;;;;5056190;28;20033;-63
2022/07/15 12:17:09;;;;;;;2.38;1.55;;;28.70;35.10;;;;;;5054391;28;20044;-63
2022/07/15 12:19:35;;;;;;;2.75;1.40;;;28.70;35.10;;;;;;5057912;28;20033;-61
2022/07/15 12:22:07;;;;;;;3.28;1.23;;;28.70;34.90;;;;;;5056125;28;20064;-62
2022/07/15 12:24:44;;;;;;;2.72;1.65;;;28.80;34.80;;;;;;5053203;28;20051;-63
2022/07/15 12:27:11;;;;;;;2.20;1.50;;;28.70;34.30;;;;;;5056046;28;20416;-63
2022/07/15 12:29:37;;;;;;;2.28;1.40;;;28.80;35.00;;;;;;5055057;28;20068;-65
2022/07/15 12:32:05;;;;;;;2.55;1.60;;;28.80;35.00;;;;;;5055722;28;20037;-64
2022/07/15 12:34:49;;;;;;;2.30;1.83;;;28.70;34.50;;;;;;5056556;28;20040;-62
2022/07/15 12:37:17;;;;;;;3.75;1.50;;;28.80;33.60;;;;;;5058324;28;20046;-63
2022/07/15 12:40:07;;;;;;;4.72;1.50;;;28.70;34.70;;;;;;5056267;28;20090;-63
2022/07/15 12:42:47;;;;;;;6.93;1.50;;;28.60;33.90;;;;;;5053663;28;20032;-64
2022/07/15 12:45:36;;;;;;;2.53;1.50;;;28.60;34.20;;;;;;5058021;28;20037;-64
2022/07/15 12:48:07;;;;;;;1.60;1.50;;;28.50;34.10;;;;;;5056668;28;20037;-63
2022/07/15 12:50:36;;;;;;;1.80;1.42;;;28.60;33.90;;;;;;5056511;28;20033;-65
2022/07/15 12:53:03;;;;;;;1.63;1.52;;;28.50;34.00;;;;;;5056925;28;20068;-62
2022/07/15 12:55:31;;;;;;;2.00;1.50;;;28.50;34.50;;;;;;5056052;28;20106;-63
2022/07/15 12:58:11;;;;;;;2.72;1.85;;;28.60;33.80;;;;;;5056976;28;20389;-64
2022/07/15 13:00:38;;;;;;;3.45;1.88;;;28.60;33.10;;;;;;5058254;28;20504;-64
2022/07/15 13:03:17;;;;;;;3.05;1.65;;;28.50;33.30;;;;;;5057807;28;20404;-63